createdAt,value
2022-08-03T00:01:27.267Z,79.80
2022-08-03T00:03:54.366Z,80.00
2022-08-03T00:06:21.310Z,79.90
2022-08-03T00:08:48.397Z,79.90
2022-08-03T00:11:15.344Z,81.70
2022-08-03T00:13:43.113Z,81.30
2022-08-03T00:16:10.819Z,81.80
2022-08-03T00:18:38.022Z,80.80
2022-08-03T00:21:05.161Z,80.80
2022-08-03T00:23:51.355Z,80.80
2022-08-03T00:26:19.322Z,82.20
2022-08-03T00:28:46.310Z,81.30
2022-08-03T00:31:13.860Z,81.10
2022-08-03T00:33:58.026Z,81.60
2022-08-03T00:36:27.321Z,81.90
2022-08-03T00:38:54.462Z,82.10
2022-08-03T00:41:21.470Z,82.20
2022-08-03T00:43:48.489Z,82.40
2022-08-03T00:46:21.003Z,83.40
2022-08-03T00:48:52.135Z,83.20
2022-08-03T00:51:20.075Z,85.80
2022-08-03T00:53:47.078Z,83.40
2022-08-03T00:56:17.302Z,84.10
2022-08-03T00:58:44.978Z,85.80
2022-08-03T01:01:12.770Z,86.80
2022-08-03T01:03:40.184Z,84.50
2022-08-03T01:06:18.498Z,84.20
2022-08-03T01:09:20.758Z,85.20
2022-08-03T01:12:01.102Z,88.20
2022-08-03T01:14:48.338Z,85.60
2022-08-03T01:17:24.335Z,87.30
2022-08-03T01:20:03.777Z,84.80
2022-08-03T01:22:58.558Z,86.60
2022-08-03T01:25:25.509Z,88.70
2022-08-03T01:28:16.405Z,86.10
2022-08-03T01:30:44.256Z,87.20
2022-08-03T01:33:16.343Z,85.00
2022-08-03T01:36:19.711Z,86.00
2022-08-03T01:38:51.277Z,88.50
2022-08-03T01:41:20.595Z,85.90
2022-08-03T01:44:27.853Z,87.50
2022-08-03T01:46:37.218Z,86.50
2022-08-03T01:49:09.310Z,85.50
2022-08-03T01:52:03.617Z,86.70
2022-08-03T01:54:26.826Z,87.00
2022-08-03T01:56:54.454Z,87.90
2022-08-03T01:59:21.416Z,87.00
2022-08-03T02:02:31.886Z,88.00
2022-08-03T02:04:35.676Z,87.60
2022-08-03T02:07:03.486Z,88.90
2022-08-03T02:09:30.983Z,87.70
2022-08-03T02:11:58.074Z,88.30
2022-08-03T02:14:25.193Z,88.50
2022-08-03T02:16:52.175Z,89.20
2022-08-03T02:19:19.183Z,88.80
2022-08-03T02:21:57.071Z,89.40
2022-08-03T02:24:29.123Z,90.40
2022-08-03T02:26:56.324Z,90.10
2022-08-03T02:29:40.189Z,90.10
2022-08-03T02:32:10.919Z,90.10
2022-08-03T02:34:37.955Z,90.60
2022-08-03T02:37:04.906Z,90.20
2022-08-03T02:39:31.919Z,90.10
2022-08-03T02:42:02.440Z,90.00
2022-08-03T02:44:32.655Z,89.30
2022-08-03T02:47:03.939Z,89.20
2022-08-03T02:49:40.511Z,89.00
2022-08-03T02:52:17.369Z,88.10
2022-08-03T02:54:44.963Z,90.10
2022-08-03T02:57:11.959Z,89.60
2022-08-03T02:59:38.963Z,89.40
2022-08-03T03:02:05.939Z,88.80
2022-08-03T03:04:33.487Z,89.40
2022-08-03T03:07:01.876Z,89.50
2022-08-03T03:09:41.799Z,90.10
2022-08-03T03:12:10.880Z,89.10
2022-08-03T03:14:38.059Z,88.90
2022-08-03T03:17:06.727Z,89.80
2022-08-03T03:19:34.072Z,88.30
2022-08-03T03:22:01.716Z,87.80
2022-08-03T03:24:29.486Z,88.50
2022-08-03T03:26:57.272Z,87.90
2022-08-03T03:29:24.403Z,87.80
2022-08-03T03:31:51.393Z,88.30
2022-08-03T03:34:18.627Z,88.60
2022-08-03T03:36:46.043Z,88.90
2022-08-03T03:39:15.235Z,88.20
2022-08-03T03:41:43.453Z,88.00
2022-08-03T03:44:10.449Z,88.90
2022-08-03T03:46:38.442Z,87.90
2022-08-03T03:49:08.688Z,87.70
2022-08-03T03:51:35.856Z,88.20
2022-08-03T03:54:04.562Z,87.50
2022-08-03T03:56:31.592Z,88.00
2022-08-03T03:58:58.587Z,87.90
2022-08-03T04:01:25.857Z,88.20
2022-08-03T04:03:52.840Z,87.30
2022-08-03T04:06:38.242Z,87.70
2022-08-03T04:09:23.817Z,87.90
2022-08-03T04:11:51.754Z,87.20
2022-08-03T04:14:26.934Z,87.80
2022-08-03T04:17:04.206Z,87.70
2022-08-03T04:19:34.935Z,88.50
2022-08-03T04:22:10.405Z,87.50
2022-08-03T04:25:01.829Z,87.80
2022-08-03T04:27:31.335Z,88.50
2022-08-03T04:29:58.306Z,87.30
2022-08-03T04:32:26.424Z,87.00
2022-08-03T04:34:53.466Z,86.90
2022-08-03T04:37:32.430Z,87.50
2022-08-03T04:39:59.643Z,87.80
2022-08-03T04:42:26.581Z,86.20
2022-08-03T04:44:57.662Z,86.00
2022-08-03T04:47:27.528Z,87.10
2022-08-03T04:49:54.511Z,87.00
2022-08-03T04:52:21.521Z,86.70
2022-08-03T04:54:50.744Z,86.90
2022-08-03T04:57:22.036Z,87.20
2022-08-03T05:00:02.072Z,88.50
2022-08-03T05:02:30.100Z,86.80
2022-08-03T05:04:57.095Z,86.60
2022-08-03T05:07:24.780Z,86.50
2022-08-03T05:09:57.618Z,86.00
2022-08-03T05:12:32.752Z,86.40
2022-08-03T05:15:00.781Z,86.80
2022-08-03T05:17:28.522Z,86.40
2022-08-03T05:19:55.509Z,86.10
2022-08-03T05:22:22.683Z,87.30
2022-08-03T05:24:49.779Z,86.60
2022-08-03T05:27:19.622Z,86.90
2022-08-03T05:29:47.176Z,86.20
2022-08-03T05:32:14.443Z,86.10
2022-08-03T05:34:41.602Z,86.00
2022-08-03T05:37:09.050Z,86.20
2022-08-03T05:39:36.226Z,86.10
2022-08-03T05:42:03.178Z,86.10
2022-08-03T05:44:31.780Z,86.20
2022-08-03T05:46:59.546Z,85.60
2022-08-03T05:49:26.522Z,86.10
2022-08-03T05:52:08.108Z,86.20
2022-08-03T05:54:56.452Z,86.20
2022-08-03T05:57:25.495Z,85.50
2022-08-03T05:59:58.378Z,86.00
2022-08-03T06:02:27.193Z,86.30
2022-08-03T06:04:54.537Z,85.60
2022-08-03T06:07:21.617Z,85.90
2022-08-03T06:10:34.519Z,85.80
2022-08-03T06:12:36.392Z,85.50
2022-08-03T06:15:04.542Z,85.50
2022-08-03T06:17:37.231Z,85.20
2022-08-03T06:20:06.056Z,85.00
2022-08-03T06:22:33.084Z,84.90
2022-08-03T06:25:04.782Z,84.60
2022-08-03T06:27:36.660Z,84.40
2022-08-03T06:30:04.682Z,84.10
2022-08-03T06:32:31.659Z,84.40
2022-08-03T06:34:58.629Z,84.20
2022-08-03T06:37:27.172Z,83.80
2022-08-03T06:39:54.413Z,83.60
2022-08-03T06:42:21.487Z,83.20
2022-08-03T06:44:49.961Z,83.10
2022-08-03T06:47:17.351Z,82.90
2022-08-03T06:49:44.476Z,83.20
2022-08-03T06:52:37.576Z,83.00
2022-08-03T06:55:06.415Z,82.20
2022-08-03T06:57:33.474Z,81.90
2022-08-03T07:00:07.495Z,82.10
2022-08-03T07:02:39.770Z,80.80
2022-08-03T07:05:07.558Z,81.20
2022-08-03T07:07:34.539Z,80.50
2022-08-03T07:10:02.302Z,81.40
2022-08-03T07:12:29.961Z,80.20
2022-08-03T07:15:00.687Z,80.70
2022-08-03T07:17:29.787Z,80.70
2022-08-03T07:19:57.180Z,80.70
2022-08-03T07:22:24.269Z,80.40
2022-08-03T07:24:51.211Z,80.20
2022-08-03T07:27:18.158Z,80.20
2022-08-03T07:29:45.141Z,80.30
2022-08-03T07:32:12.116Z,80.40
2022-08-03T07:34:39.121Z,79.20
2022-08-03T07:37:06.139Z,79.90
2022-08-03T07:39:33.129Z,79.40
2022-08-03T07:42:00.090Z,80.00
2022-08-03T07:44:27.172Z,79.50
2022-08-03T07:46:54.263Z,79.30
2022-08-03T07:49:23.795Z,78.40
2022-08-03T07:52:10.941Z,79.30
2022-08-03T07:54:38.003Z,79.40
2022-08-03T07:57:05.013Z,79.40
2022-08-03T07:59:56.484Z,80.10
2022-08-03T08:02:19.058Z,80.10
2022-08-03T08:04:46.155Z,80.30
2022-08-03T08:07:13.231Z,80.00
2022-08-03T08:09:42.505Z,78.70
2022-08-03T08:12:15.343Z,78.70
2022-08-03T08:14:45.834Z,78.50
2022-08-03T08:17:13.488Z,78.80
2022-08-03T08:19:46.722Z,77.90
2022-08-03T08:22:25.845Z,78.10
2022-08-03T08:24:59.511Z,76.70
2022-08-03T08:27:27.984Z,76.40
2022-08-03T08:29:58.868Z,75.70
2022-08-03T08:32:29.657Z,75.80
2022-08-03T08:34:57.894Z,73.70
2022-08-03T08:37:24.839Z,73.70
2022-08-03T08:39:51.833Z,73.10
2022-08-03T08:42:18.949Z,70.30
2022-08-03T08:44:46.050Z,71.40
2022-08-03T08:47:12.964Z,72.50
2022-08-03T08:49:40.028Z,72.20
2022-08-03T08:52:24.978Z,72.60
2022-08-03T08:55:00.182Z,69.90
2022-08-03T08:57:42.383Z,68.30
2022-08-03T09:00:12.855Z,65.40
2022-08-03T09:02:42.471Z,65.70
2022-08-03T09:05:17.539Z,67.40
2022-08-03T09:07:45.393Z,64.10
2022-08-03T09:10:13.798Z,63.60
2022-08-03T09:12:45.426Z,64.70
2022-08-03T09:15:24.580Z,61.90
2022-08-03T09:17:53.839Z,63.60
2022-08-03T09:20:21.678Z,65.30
2022-08-03T09:22:54.190Z,65.30
2022-08-03T09:25:35.680Z,63.60
2022-08-03T09:28:09.142Z,63.70
2022-08-03T09:30:37.112Z,64.40
2022-08-03T09:33:15.022Z,65.60
2022-08-03T09:35:54.006Z,61.80
2022-08-03T09:38:27.361Z,62.40
2022-08-03T09:40:59.490Z,61.80
2022-08-03T09:43:28.012Z,63.60
2022-08-03T09:46:03.753Z,61.00
2022-08-03T09:48:31.425Z,61.10
2022-08-03T09:51:12.835Z,63.90
2022-08-03T09:53:59.490Z,61.70
2022-08-03T09:56:43.056Z,62.00
2022-08-03T09:59:11.498Z,61.90
2022-08-03T10:01:41.652Z,63.00
2022-08-03T10:04:14.068Z,64.30
2022-08-03T10:06:41.118Z,61.50
2022-08-03T10:09:16.005Z,62.70
2022-08-03T10:11:43.507Z,61.20
2022-08-03T10:14:18.887Z,62.40
2022-08-03T10:16:46.993Z,61.10
2022-08-03T10:19:16.639Z,61.90
2022-08-03T10:21:51.479Z,60.00
2022-08-03T10:24:24.262Z,57.20
2022-08-03T10:26:51.486Z,58.00
2022-08-03T10:29:21.660Z,59.50
2022-08-03T10:31:57.414Z,56.20
2022-08-03T10:34:32.022Z,57.70
2022-08-03T10:36:59.365Z,56.70
2022-08-03T10:39:28.913Z,55.80
2022-08-03T10:41:57.735Z,56.50
2022-08-03T10:44:25.226Z,57.50
2022-08-03T10:46:52.152Z,56.30
2022-08-03T10:49:34.874Z,59.30
2022-08-03T10:52:04.424Z,56.80
2022-08-03T10:55:07.700Z,58.20
2022-08-03T10:57:58.374Z,55.70
2022-08-03T11:00:27.490Z,55.60
2022-08-03T11:03:16.297Z,55.70
2022-08-03T11:05:48.260Z,55.10
2022-08-03T11:08:24.509Z,53.50
2022-08-03T11:10:53.428Z,54.00
2022-08-03T11:13:22.146Z,54.80
2022-08-03T11:15:50.436Z,53.50
2022-08-03T11:18:17.503Z,53.50
2022-08-03T11:20:58.602Z,55.60
2022-08-03T11:24:03.966Z,52.90
2022-08-03T11:26:33.129Z,53.60
2022-08-03T11:29:31.222Z,55.60
2022-08-03T11:31:58.248Z,54.10
2022-08-03T11:34:26.375Z,55.20
2022-08-03T11:37:22.701Z,53.70
2022-08-03T11:39:51.393Z,52.10
2022-08-03T11:42:24.372Z,54.40
2022-08-03T11:44:52.003Z,52.20
2022-08-03T11:47:20.194Z,54.50
2022-08-03T11:49:47.777Z,53.10
2022-08-03T11:52:15.168Z,53.20
2022-08-03T11:54:42.532Z,50.50
2022-08-03T11:57:09.593Z,51.20
2022-08-03T11:59:40.300Z,51.10
2022-08-03T12:02:11.355Z,51.80
2022-08-03T12:04:51.987Z,52.30
2022-08-03T12:07:24.444Z,52.70
2022-08-03T12:10:13.806Z,53.40
2022-08-03T12:12:45.891Z,51.60
2022-08-03T12:15:13.509Z,51.80
2022-08-03T12:17:41.221Z,51.90
2022-08-03T12:20:09.603Z,52.00
2022-08-03T12:22:38.388Z,51.80
2022-08-03T12:25:06.451Z,48.90
2022-08-03T12:27:33.536Z,48.80
2022-08-03T12:30:01.837Z,48.40
2022-08-03T12:32:29.192Z,50.50
2022-08-03T12:35:00.040Z,50.70
2022-08-03T12:37:27.548Z,51.00
2022-08-03T12:40:00.936Z,48.50
2022-08-03T12:42:34.897Z,46.30
2022-08-03T12:45:29.065Z,46.00
2022-08-03T12:47:57.429Z,45.00
2022-08-03T12:50:34.855Z,48.00
2022-08-03T12:53:04.690Z,44.90
2022-08-03T12:55:57.141Z,46.50
2022-08-03T12:58:39.983Z,47.20
2022-08-03T13:01:09.214Z,43.20
2022-08-03T13:03:45.740Z,46.40
2022-08-03T13:06:19.226Z,44.90
2022-08-03T13:08:48.256Z,47.10
2022-08-03T13:11:22.778Z,46.80
2022-08-03T13:13:50.875Z,44.30
2022-08-03T13:16:19.419Z,45.00
2022-08-03T13:18:49.404Z,46.10
2022-08-03T13:21:16.628Z,45.60
2022-08-03T13:23:43.686Z,45.90
2022-08-03T13:26:11.117Z,44.00
2022-08-03T13:28:41.574Z,45.80
2022-08-03T13:31:08.615Z,43.20
2022-08-03T13:33:35.626Z,43.10
2022-08-03T13:36:02.656Z,45.60
2022-08-03T13:38:29.804Z,45.20
2022-08-03T13:40:57.576Z,43.10
2022-08-03T13:43:24.512Z,45.00
2022-08-03T13:45:56.550Z,45.00
2022-08-03T13:48:35.844Z,43.10
2022-08-03T13:51:11.727Z,44.70
2022-08-03T13:53:50.214Z,43.50
2022-08-03T13:56:17.179Z,43.10
2022-08-03T13:58:44.201Z,43.10
2022-08-03T14:01:11.492Z,43.40
2022-08-03T14:03:38.954Z,43.30
2022-08-03T14:06:05.983Z,43.40
2022-08-03T14:08:33.050Z,43.40
2022-08-03T14:11:00.003Z,42.60
2022-08-03T14:13:27.160Z,41.60
2022-08-03T14:15:55.679Z,41.00
2022-08-03T14:18:27.716Z,40.30
2022-08-03T14:21:00.651Z,42.50
2022-08-03T14:23:29.141Z,41.00
2022-08-03T14:25:56.944Z,42.10
2022-08-03T14:28:24.197Z,43.50
2022-08-03T14:30:51.735Z,42.40
2022-08-03T14:33:18.857Z,41.60
2022-08-03T14:35:45.929Z,40.70
2022-08-03T14:38:12.882Z,41.80
2022-08-03T14:40:39.875Z,40.40
2022-08-03T14:43:06.974Z,40.50
2022-08-03T14:45:34.495Z,41.90
2022-08-03T14:50:34.600Z,41.40
2022-08-03T14:50:51.671Z,41.20
2022-08-03T14:53:19.480Z,43.00
2022-08-03T14:55:49.662Z,41.90
2022-08-03T14:58:20.775Z,41.90
2022-08-03T15:00:48.525Z,41.50
2022-08-03T15:03:16.740Z,43.00
2022-08-03T15:05:44.671Z,42.90
2022-08-03T15:08:11.625Z,42.80
2022-08-03T15:10:44.358Z,42.90
2022-08-03T15:13:13.211Z,42.70
2022-08-03T15:15:40.629Z,43.00
2022-08-03T15:18:07.807Z,42.90
2022-08-03T15:20:50.151Z,42.90
2022-08-03T15:23:18.013Z,42.90
2022-08-03T15:26:32.398Z,43.00
2022-08-03T15:28:32.407Z,42.90
2022-08-03T15:30:59.471Z,43.10
2022-08-03T15:33:26.482Z,43.10
2022-08-03T15:35:53.505Z,43.20
2022-08-03T15:38:26.220Z,43.10
2022-08-03T15:40:59.155Z,43.00
2022-08-03T15:43:26.232Z,43.00
2022-08-03T15:48:40.860Z,43.00
2022-08-03T15:51:09.318Z,43.10
2022-08-03T15:53:36.381Z,43.20
2022-08-03T15:56:08.005Z,43.00
2022-08-03T15:59:04.450Z,43.20
2022-08-03T16:01:25.446Z,43.30
2022-08-03T16:03:52.529Z,43.20
2022-08-03T16:06:29.740Z,43.20
2022-08-03T16:09:04.780Z,42.90
2022-08-03T16:11:32.023Z,43.70
2022-08-03T16:14:13.402Z,43.20
2022-08-03T16:16:46.050Z,44.20
2022-08-03T16:19:13.771Z,46.00
2022-08-03T16:21:48.567Z,45.50
2022-08-03T16:24:19.838Z,45.40
2022-08-03T16:26:54.759Z,45.50
2022-08-03T16:29:22.286Z,45.70
2022-08-03T16:31:51.083Z,45.70
2022-08-03T16:34:18.639Z,45.60
2022-08-03T16:36:46.103Z,46.00
2022-08-03T16:39:13.121Z,45.70
2022-08-03T16:41:54.015Z,45.80
2022-08-03T16:44:28.716Z,45.50
2022-08-03T16:46:55.699Z,46.10
2022-08-03T16:49:54.093Z,46.50
2022-08-03T16:52:09.656Z,46.80
2022-08-03T16:54:40.217Z,46.80
2022-08-03T16:57:08.574Z,47.10
2022-08-03T16:59:36.711Z,47.10
2022-08-03T17:02:09.698Z,47.20
2022-08-03T17:04:40.084Z,47.00
2022-08-03T17:07:08.814Z,46.90
2022-08-03T17:09:38.450Z,47.10
2022-08-03T17:12:06.131Z,47.20
2022-08-03T17:14:34.240Z,47.40
2022-08-03T17:17:02.077Z,47.20
2022-08-03T17:19:32.327Z,47.00
2022-08-03T17:22:04.790Z,47.00
2022-08-03T17:24:37.057Z,47.10
2022-08-03T17:28:42.419Z,47.30
2022-08-03T17:30:18.944Z,47.80
2022-08-03T17:32:57.737Z,47.90
2022-08-03T17:35:34.576Z,47.60
2022-08-03T17:38:06.710Z,48.20
2022-08-03T17:40:37.957Z,48.10
2022-08-03T17:44:13.226Z,48.40
2022-08-03T17:45:54.971Z,48.70
2022-08-03T17:48:24.924Z,49.20
2022-08-03T17:51:00.756Z,49.10
2022-08-03T17:53:30.708Z,49.60
2022-08-03T17:56:38.763Z,49.50
2022-08-03T17:59:50.803Z,49.70
2022-08-03T18:03:05.464Z,50.30
2022-08-03T18:06:11.534Z,50.20
2022-08-03T18:08:26.805Z,50.30
2022-08-03T18:11:14.459Z,50.50
2022-08-03T18:13:53.525Z,50.70
2022-08-03T18:16:32.519Z,50.60
2022-08-03T18:19:01.556Z,50.90
2022-08-03T18:22:02.088Z,50.70
2022-08-03T18:24:24.879Z,51.00
2022-08-03T18:26:52.012Z,51.40
2022-08-03T18:29:19.115Z,52.10
2022-08-03T18:32:03.503Z,51.80
2022-08-03T18:34:33.112Z,52.30
2022-08-03T18:37:01.182Z,53.00
2022-08-03T18:39:36.111Z,53.00
2022-08-03T18:42:19.369Z,53.30
2022-08-03T18:44:54.425Z,52.60
2022-08-03T18:47:52.979Z,53.00
2022-08-03T18:50:36.743Z,54.20
2022-08-03T18:53:16.491Z,54.60
2022-08-03T18:56:06.978Z,54.60
2022-08-03T18:59:02.303Z,54.60
2022-08-03T19:02:00.321Z,55.60
2022-08-03T19:04:32.839Z,54.30
2022-08-03T19:07:08.710Z,57.60
2022-08-03T19:09:52.179Z,57.90
2022-08-03T19:12:30.669Z,58.00
2022-08-03T19:15:03.980Z,57.30
2022-08-03T19:17:36.038Z,56.00
2022-08-03T19:20:06.126Z,58.00
2022-08-03T19:22:33.404Z,57.90
2022-08-03T19:25:01.765Z,57.40
2022-08-03T19:27:29.910Z,58.40
2022-08-03T19:30:01.212Z,58.00
2022-08-03T19:32:31.766Z,59.50
2022-08-03T19:34:59.825Z,59.10
2022-08-03T19:37:38.578Z,58.70
2022-08-03T19:40:12.252Z,59.50
2022-08-03T19:42:41.193Z,60.40
2022-08-03T19:45:14.253Z,60.10
2022-08-03T19:48:10.099Z,59.70
2022-08-03T19:50:37.502Z,61.30
2022-08-03T19:53:12.224Z,59.40
2022-08-03T19:55:40.799Z,59.40
2022-08-03T20:01:21.151Z,60.10
2022-08-03T20:03:48.768Z,60.50
2022-08-03T20:06:17.223Z,61.40
2022-08-03T20:08:44.542Z,61.40
2022-08-03T20:11:11.674Z,60.40
2022-08-03T20:13:39.066Z,60.20
2022-08-03T20:16:06.520Z,60.30
2022-08-03T20:18:39.242Z,60.60
2022-08-03T20:21:15.665Z,61.00
2022-08-03T20:24:01.779Z,63.20
2022-08-03T20:26:33.626Z,61.20
2022-08-03T20:29:08.965Z,62.30
2022-08-03T20:31:37.546Z,63.20
2022-08-03T20:34:05.587Z,62.60
2022-08-03T20:36:32.596Z,62.50
2022-08-03T20:38:59.741Z,62.60
2022-08-03T20:41:26.767Z,63.30
2022-08-03T20:43:53.843Z,64.20
2022-08-03T20:46:32.890Z,63.60
2022-08-03T20:49:03.846Z,64.00
2022-08-03T20:51:49.526Z,64.60
2022-08-03T20:54:28.702Z,64.50
2022-08-03T20:57:03.877Z,64.40
2022-08-03T20:59:47.184Z,66.60
2022-08-03T21:02:19.547Z,67.10
2022-08-03T21:04:56.367Z,64.70
2022-08-03T21:07:23.356Z,65.00
2022-08-03T21:09:55.980Z,65.60
2022-08-03T21:12:31.204Z,67.70
2022-08-03T21:13:08.591Z,60.00
2022-08-03T21:14:59.697Z,66.70
2022-08-03T21:17:39.984Z,65.70
2022-08-03T21:20:09.007Z,65.70
2022-08-03T21:22:46.897Z,66.40
2022-08-03T21:25:15.130Z,66.80
2022-08-03T21:27:42.151Z,66.00
2022-08-03T21:30:10.152Z,66.20
2022-08-03T21:32:40.302Z,67.30
2022-08-03T21:35:10.763Z,66.70
2022-08-03T21:37:38.826Z,67.20
2022-08-03T21:40:06.713Z,66.20
2022-08-03T21:42:33.631Z,66.90
2022-08-03T21:45:00.525Z,66.20
2022-08-03T21:47:27.430Z,66.30
2022-08-03T21:50:06.466Z,66.20
2022-08-03T21:52:40.065Z,66.80
2022-08-03T21:55:07.449Z,67.50
2022-08-03T21:57:34.647Z,66.80
2022-08-03T22:00:16.662Z,66.80
2022-08-03T22:02:55.342Z,69.20
2022-08-03T22:05:28.946Z,68.30
2022-08-03T22:08:09.819Z,66.90
2022-08-03T22:10:36.878Z,67.00
2022-08-03T22:13:03.858Z,66.90
2022-08-03T22:15:30.799Z,67.20
2022-08-03T22:17:58.007Z,67.20
2022-08-03T22:20:25.127Z,67.30
2022-08-03T22:22:55.375Z,67.50
2022-08-03T22:25:29.321Z,68.30
2022-08-03T22:27:57.314Z,68.50
2022-08-03T22:30:24.218Z,68.40
2022-08-03T22:32:52.169Z,68.50
2022-08-03T22:35:19.157Z,69.80
2022-08-03T22:37:46.148Z,69.00
2022-08-03T22:40:14.660Z,69.70
2022-08-03T22:42:43.020Z,71.20
2022-08-03T22:45:10.257Z,71.40
2022-08-03T22:47:57.222Z,71.60
2022-08-03T22:50:32.690Z,72.10
2022-08-03T22:53:00.633Z,72.80
2022-08-03T22:55:27.661Z,72.50
2022-08-03T22:57:56.159Z,72.70
2022-08-03T23:00:23.589Z,72.60
2022-08-03T23:02:50.567Z,72.60
2022-08-03T23:06:00.279Z,72.90
2022-08-03T23:08:25.409Z,76.50
2022-08-03T23:10:53.233Z,76.00
2022-08-03T23:13:21.951Z,75.20
2022-08-03T23:15:56.996Z,74.20
2022-08-03T23:18:24.307Z,75.90
2022-08-03T23:20:54.635Z,74.80
2022-08-03T23:23:22.542Z,77.30
2022-08-03T23:25:51.314Z,75.50
2022-08-03T23:28:18.380Z,75.40
2022-08-03T23:30:45.876Z,75.60
2022-08-03T23:33:14.941Z,75.30
2022-08-03T23:36:28.529Z,76.00
2022-08-03T23:38:44.350Z,75.70
2022-08-03T23:41:11.278Z,73.70
2022-08-03T23:43:50.909Z,71.50
2022-08-03T23:46:19.837Z,70.10
2022-08-03T23:48:46.788Z,68.70
2022-08-03T23:51:18.542Z,67.10
2022-08-03T23:54:01.449Z,66.00
2022-08-03T23:56:31.962Z,64.40
2022-08-03T23:59:11.007Z,64.70
